createdAt,value
2023-01-28T00:00:20.046Z,3.20
2023-01-28T00:01:19.988Z,5.00
2023-01-28T00:02:20.028Z,3.80
2023-01-28T00:03:19.977Z,3.70
2023-01-28T00:04:19.949Z,3.10
2023-01-28T00:05:19.960Z,4.40
2023-01-28T00:06:19.953Z,4.30
2023-01-28T00:07:19.918Z,4.00
2023-01-28T00:08:19.912Z,3.50
2023-01-28T00:09:19.906Z,3.30
2023-01-28T00:10:19.935Z,4.80
2023-01-28T00:11:19.867Z,4.80
2023-01-28T00:12:19.874Z,3.90
2023-01-28T00:13:19.863Z,4.00
2023-01-28T00:14:19.876Z,3.70
2023-01-28T00:15:19.840Z,2.60
2023-01-28T00:16:19.884Z,5.10
2023-01-28T00:17:19.800Z,3.00
2023-01-28T00:18:19.819Z,3.10
2023-01-28T00:19:19.788Z,3.50
2023-01-28T00:20:19.788Z,5.80
2023-01-28T00:21:19.811Z,6.00
2023-01-28T00:22:19.751Z,4.20
2023-01-28T00:23:19.743Z,4.40
2023-01-28T00:24:19.729Z,2.10
2023-01-28T00:25:19.758Z,4.00
2023-01-28T00:26:19.712Z,2.90
2023-01-28T00:27:19.688Z,4.20
2023-01-28T00:28:19.687Z,3.30
2023-01-28T00:29:19.705Z,3.40
2023-01-28T00:30:19.697Z,3.60
2023-01-28T00:31:19.731Z,3.10
2023-01-28T00:32:19.674Z,4.20
2023-01-28T00:33:19.633Z,3.40
2023-01-28T00:34:19.624Z,3.00
2023-01-28T00:35:19.648Z,3.00
2023-01-28T00:36:19.596Z,5.80
2023-01-28T00:37:19.596Z,3.90
2023-01-28T00:38:19.569Z,3.50
2023-01-28T00:39:19.576Z,2.80
2023-01-28T00:40:19.576Z,2.80
2023-01-28T00:41:19.556Z,3.50
2023-01-28T00:42:19.544Z,4.20
2023-01-28T00:43:19.514Z,2.90
2023-01-28T00:44:19.545Z,3.90
2023-01-28T00:45:19.517Z,2.70
2023-01-28T00:46:19.479Z,2.70
2023-01-28T00:47:19.477Z,4.20
2023-01-28T00:48:19.467Z,3.20
2023-01-28T00:49:19.456Z,4.10
2023-01-28T00:50:19.466Z,3.10
2023-01-28T00:51:19.469Z,2.90
2023-01-28T00:52:19.422Z,2.90
2023-01-28T00:53:19.408Z,4.00
2023-01-28T00:54:19.400Z,4.00
2023-01-28T00:55:19.419Z,3.20
2023-01-28T00:56:19.398Z,4.30
2023-01-28T00:57:19.379Z,3.50
2023-01-28T00:58:19.360Z,3.20
2023-01-28T00:59:19.403Z,2.80
2023-01-28T01:00:19.340Z,3.50
2023-01-28T01:01:19.334Z,5.10
2023-01-28T01:02:19.360Z,5.50
2023-01-28T01:03:19.308Z,2.60
2023-01-28T01:04:19.288Z,4.00
2023-01-28T01:05:19.306Z,2.60
2023-01-28T01:06:19.263Z,4.00
2023-01-28T01:07:19.244Z,2.70
2023-01-28T01:08:19.240Z,3.00
2023-01-28T01:09:19.235Z,2.80
2023-01-28T01:10:19.275Z,3.30
2023-01-28T01:11:19.223Z,3.70
2023-01-28T01:12:19.200Z,2.20
2023-01-28T01:13:19.209Z,2.50
2023-01-28T01:14:19.205Z,2.60
2023-01-28T01:15:19.209Z,3.40
2023-01-28T01:16:19.205Z,2.90
2023-01-28T01:17:19.151Z,2.60
2023-01-28T01:18:19.142Z,6.50
2023-01-28T01:19:19.141Z,3.60
2023-01-28T01:20:19.134Z,3.50
2023-01-28T01:21:19.125Z,2.50
2023-01-28T01:22:19.093Z,3.50
2023-01-28T01:23:19.098Z,3.30
2023-01-28T01:24:19.083Z,2.40
2023-01-28T01:25:19.111Z,5.20
2023-01-28T01:26:19.056Z,3.70
2023-01-28T01:27:19.049Z,4.60
2023-01-28T01:28:19.027Z,3.60
2023-01-28T01:29:19.031Z,3.50
2023-01-28T01:30:19.035Z,2.80
2023-01-28T01:31:18.995Z,2.30
2023-01-28T01:32:18.982Z,2.80
2023-01-28T01:33:18.984Z,3.30
2023-01-28T01:34:18.966Z,3.10
2023-01-28T01:35:18.961Z,2.90
2023-01-28T01:36:18.945Z,4.00
2023-01-28T01:37:18.919Z,3.00
2023-01-28T01:38:18.914Z,3.60
2023-01-28T01:39:18.934Z,3.00
2023-01-28T01:40:18.924Z,4.60
2023-01-28T01:41:18.876Z,2.00
2023-01-28T01:42:18.876Z,3.10
2023-01-28T01:43:18.890Z,3.20
2023-01-28T01:44:18.848Z,3.60
2023-01-28T01:45:18.859Z,3.80
2023-01-28T01:46:18.891Z,3.00
2023-01-28T01:47:18.837Z,2.70
2023-01-28T01:48:18.824Z,2.80
2023-01-28T01:49:18.825Z,2.70
2023-01-28T01:50:18.798Z,2.70
2023-01-28T01:51:18.810Z,3.20
2023-01-28T01:52:18.762Z,3.30
2023-01-28T01:53:18.748Z,4.70
2023-01-28T01:54:18.746Z,4.10
2023-01-28T01:55:18.762Z,4.70
2023-01-28T01:56:18.715Z,5.80
2023-01-28T01:57:18.720Z,5.80
2023-01-28T01:58:18.704Z,4.30
2023-01-28T01:59:18.701Z,2.80
2023-01-28T02:00:18.701Z,3.50
2023-01-28T02:01:18.670Z,3.70
2023-01-28T02:02:18.708Z,2.80
2023-01-28T02:03:18.673Z,3.00
2023-01-28T02:04:18.666Z,3.70
2023-01-28T02:05:18.781Z,4.40
2023-01-28T02:06:18.609Z,3.00
2023-01-28T02:07:18.634Z,2.50
2023-01-28T02:08:18.591Z,3.00
2023-01-28T02:09:18.574Z,3.10
2023-01-28T02:10:18.586Z,4.30
2023-01-28T02:11:18.568Z,3.30
2023-01-28T02:12:18.544Z,3.20
2023-01-28T02:13:18.539Z,2.50
2023-01-28T02:14:30.613Z,3.00
2023-01-28T02:15:18.529Z,3.70
2023-01-28T02:16:18.524Z,3.00
2023-01-28T02:17:18.479Z,2.20
2023-01-28T02:18:18.475Z,2.10
2023-01-28T02:19:18.474Z,3.10
2023-01-28T02:20:18.482Z,3.80
2023-01-28T02:21:18.480Z,2.60
2023-01-28T02:22:18.464Z,4.10
2023-01-28T02:23:18.438Z,3.30
2023-01-28T02:24:18.492Z,5.70
2023-01-28T02:25:18.412Z,3.00
2023-01-28T02:26:18.406Z,3.80
2023-01-28T02:27:18.427Z,3.70
2023-01-28T02:28:18.376Z,3.40
2023-01-28T02:29:18.381Z,4.00
2023-01-28T02:30:18.349Z,3.30
2023-01-28T02:31:18.591Z,3.60
2023-01-28T02:32:18.324Z,2.30
2023-01-28T02:33:18.325Z,3.20
2023-01-28T02:34:18.305Z,5.20
2023-01-28T02:35:18.281Z,3.20
2023-01-28T02:36:18.338Z,3.90
2023-01-28T02:37:18.274Z,3.60
2023-01-28T02:38:18.257Z,3.10
2023-01-28T02:39:18.285Z,3.70
2023-01-28T02:40:18.235Z,3.20
2023-01-28T02:41:18.235Z,2.70
2023-01-28T02:42:18.235Z,3.30
2023-01-28T02:43:18.205Z,2.60
2023-01-28T02:44:18.194Z,4.70
2023-01-28T02:45:18.185Z,3.00
2023-01-28T02:46:18.234Z,3.20
2023-01-28T02:47:18.153Z,4.50
2023-01-28T02:48:18.148Z,4.60
2023-01-28T02:49:18.144Z,3.50
2023-01-28T02:50:18.127Z,2.80
2023-01-28T02:51:18.122Z,3.00
2023-01-28T02:52:18.119Z,2.70
2023-01-28T02:53:18.116Z,4.10
2023-01-28T02:54:18.084Z,2.80
2023-01-28T02:55:18.069Z,3.20
2023-01-28T02:56:18.095Z,5.60
2023-01-28T02:57:18.045Z,3.30
2023-01-28T02:58:18.047Z,4.70
2023-01-28T02:59:18.054Z,2.90
2023-01-28T03:00:18.029Z,3.20
2023-01-28T03:01:18.049Z,4.40
2023-01-28T03:02:18.019Z,3.40
2023-01-28T03:03:17.998Z,3.90
2023-01-28T03:04:18.003Z,3.10
2023-01-28T03:05:17.965Z,3.20
2023-01-28T03:06:18.004Z,2.10
2023-01-28T03:07:17.941Z,3.20
2023-01-28T03:08:17.925Z,2.90
2023-01-28T03:09:17.980Z,2.60
2023-01-28T03:10:17.900Z,4.20
2023-01-28T03:11:17.908Z,3.20
2023-01-28T03:12:17.890Z,2.50
2023-01-28T03:13:17.913Z,6.10
2023-01-28T03:14:17.865Z,3.80
2023-01-28T03:15:17.894Z,4.50
2023-01-28T03:16:17.876Z,3.20
2023-01-28T03:17:17.825Z,2.70
2023-01-28T03:18:17.808Z,3.80
2023-01-28T03:19:17.805Z,3.40
2023-01-28T03:20:17.799Z,2.80
2023-01-28T03:21:17.950Z,3.80
2023-01-28T03:22:17.771Z,2.50
2023-01-28T03:23:17.770Z,2.50
2023-01-28T03:24:17.892Z,3.90
2023-01-28T03:25:17.741Z,3.80
2023-01-28T03:26:17.757Z,3.00
2023-01-28T03:27:17.718Z,4.40
2023-01-28T03:28:17.711Z,2.80
2023-01-28T03:29:17.702Z,5.00
2023-01-28T03:30:17.716Z,4.10
2023-01-28T03:31:17.690Z,5.00
2023-01-28T03:32:17.761Z,4.10
2023-01-28T03:33:17.673Z,4.50
2023-01-28T03:34:17.649Z,4.00
2023-01-28T03:35:17.718Z,5.10
2023-01-28T03:36:17.650Z,5.70
2023-01-28T03:37:17.613Z,4.10
2023-01-28T03:38:17.600Z,3.00
2023-01-28T03:39:17.585Z,4.40
2023-01-28T03:40:17.577Z,3.90
2023-01-28T03:41:17.573Z,3.10
2023-01-28T03:42:17.552Z,4.00
2023-01-28T03:43:17.565Z,3.00
2023-01-28T03:44:17.584Z,3.50
2023-01-28T03:45:17.787Z,3.10
2023-01-28T03:46:17.578Z,4.10
2023-01-28T03:47:17.501Z,3.50
2023-01-28T03:48:17.531Z,3.90
2023-01-28T03:49:17.472Z,4.50
2023-01-28T03:50:17.469Z,4.30
2023-01-28T03:51:17.469Z,4.40
2023-01-28T03:52:17.448Z,3.40
2023-01-28T03:53:17.439Z,4.20
2023-01-28T03:54:17.424Z,4.00
2023-01-28T03:55:17.653Z,2.70
2023-01-28T03:56:24.999Z,2.50
2023-01-28T03:57:17.415Z,3.10
2023-01-28T03:58:17.374Z,3.30
2023-01-28T03:59:17.360Z,4.70
2023-01-28T04:00:17.371Z,3.70
2023-01-28T04:01:17.364Z,3.90
2023-01-28T04:02:17.346Z,3.40
2023-01-28T04:03:17.414Z,3.80
2023-01-28T04:04:17.309Z,4.00
2023-01-28T04:05:17.609Z,2.60
2023-01-28T04:06:17.335Z,2.20
2023-01-28T04:07:17.279Z,3.90
2023-01-28T04:08:17.269Z,2.90
2023-01-28T04:09:17.256Z,3.60
2023-01-28T04:10:17.238Z,2.70
2023-01-28T04:11:17.255Z,3.00
2023-01-28T04:12:17.235Z,3.90
2023-01-28T04:13:17.231Z,3.90
2023-01-28T04:14:17.206Z,3.10
2023-01-28T04:15:17.564Z,3.50
2023-01-28T04:16:17.244Z,3.20
2023-01-28T04:17:17.186Z,3.10
2023-01-28T04:18:17.164Z,3.50
2023-01-28T04:19:17.146Z,4.60
2023-01-28T04:20:17.139Z,3.90
2023-01-28T04:21:17.146Z,3.30
2023-01-28T04:22:17.112Z,3.00
2023-01-28T04:23:17.120Z,3.80
2023-01-28T04:24:17.112Z,3.00
2023-01-28T04:25:17.512Z,2.60
2023-01-28T04:26:17.102Z,3.50
2023-01-28T04:27:17.058Z,3.90
2023-01-28T04:28:17.046Z,3.20
2023-01-28T04:29:17.036Z,4.50
2023-01-28T04:30:17.029Z,3.00
2023-01-28T04:31:17.065Z,3.30
2023-01-28T04:32:17.031Z,3.70
2023-01-28T04:33:17.001Z,2.70
2023-01-28T04:34:16.992Z,2.30
2023-01-28T04:35:17.250Z,4.70
2023-01-28T04:36:16.982Z,2.80
2023-01-28T04:37:16.955Z,4.70
2023-01-28T04:38:16.955Z,3.20
2023-01-28T04:39:16.927Z,2.80
2023-01-28T04:40:16.940Z,3.30
2023-01-28T04:41:16.932Z,4.30
2023-01-28T04:42:16.893Z,3.70
2023-01-28T04:43:16.887Z,2.70
2023-01-28T04:44:16.888Z,3.70
2023-01-28T04:45:17.251Z,3.20
2023-01-28T04:46:16.899Z,3.70
2023-01-28T04:47:16.849Z,2.50
2023-01-28T04:48:16.828Z,4.20
2023-01-28T04:49:16.814Z,4.10
2023-01-28T04:50:16.804Z,3.00
2023-01-28T04:51:16.820Z,3.80
2023-01-28T04:52:16.782Z,3.50
2023-01-28T04:53:16.776Z,4.90
2023-01-28T04:54:16.767Z,3.20
2023-01-28T04:55:17.140Z,4.00
2023-01-28T04:56:16.755Z,3.20
2023-01-28T04:57:16.777Z,3.80
2023-01-28T04:58:16.721Z,3.00
2023-01-28T04:59:16.707Z,4.40
2023-01-28T05:00:16.709Z,3.40
2023-01-28T05:01:16.791Z,4.50
2023-01-28T05:02:16.791Z,2.40
2023-01-28T05:03:16.680Z,3.70
2023-01-28T05:04:16.648Z,4.50
2023-01-28T05:05:17.087Z,2.70
2023-01-28T05:06:16.635Z,4.30
2023-01-28T05:07:16.647Z,3.10
2023-01-28T05:08:16.611Z,2.90
2023-01-28T05:09:16.611Z,3.90
2023-01-28T05:10:16.615Z,3.50
2023-01-28T05:11:16.563Z,3.40
2023-01-28T05:12:16.579Z,2.60
2023-01-28T05:13:16.556Z,3.10
2023-01-28T05:14:16.592Z,2.90
2023-01-28T05:15:16.827Z,4.20
2023-01-28T05:16:16.533Z,3.70
2023-01-28T05:17:16.554Z,2.70
2023-01-28T05:18:16.500Z,2.60
2023-01-28T05:19:16.491Z,2.40
2023-01-28T05:20:16.488Z,2.80
2023-01-28T05:21:16.479Z,2.80
2023-01-28T05:22:16.473Z,5.40
2023-01-28T05:23:16.465Z,2.60
2023-01-28T05:24:16.503Z,2.50
2023-01-28T05:25:16.829Z,3.10
2023-01-28T05:26:16.447Z,3.10
2023-01-28T05:27:16.422Z,2.70
2023-01-28T05:28:16.392Z,3.00
2023-01-28T05:29:16.373Z,2.90
2023-01-28T05:30:16.697Z,3.40
2023-01-28T05:31:16.374Z,2.30
2023-01-28T05:32:16.386Z,2.80
2023-01-28T05:33:16.356Z,2.40
2023-01-28T05:34:16.351Z,3.00
2023-01-28T05:35:16.687Z,2.60
2023-01-28T05:36:16.305Z,2.90
2023-01-28T05:37:16.311Z,3.10
2023-01-28T05:38:16.305Z,4.10
2023-01-28T05:39:16.268Z,2.80
2023-01-28T05:40:16.646Z,2.10
2023-01-28T05:41:16.260Z,1.90
2023-01-28T05:42:16.246Z,2.00
2023-01-28T05:43:16.233Z,2.20
2023-01-28T05:44:16.221Z,2.70
2023-01-28T05:45:16.507Z,2.30
2023-01-28T05:46:16.199Z,2.90
2023-01-28T05:47:16.190Z,2.50
2023-01-28T05:48:16.197Z,2.00
2023-01-28T05:49:16.204Z,3.30
2023-01-28T05:50:16.614Z,3.30
2023-01-28T05:51:16.143Z,3.80
2023-01-28T05:52:16.155Z,2.70
2023-01-28T05:53:16.192Z,2.90
2023-01-28T05:54:16.105Z,2.10
2023-01-28T05:55:16.106Z,3.50
2023-01-28T05:56:16.103Z,3.70
2023-01-28T05:57:16.104Z,2.80
2023-01-28T05:58:16.083Z,2.50
2023-01-28T05:59:16.051Z,3.70
2023-01-28T06:00:16.496Z,2.90
2023-01-28T06:01:16.034Z,3.10
2023-01-28T06:02:16.076Z,2.50
2023-01-28T06:03:15.999Z,3.30
2023-01-28T06:04:15.993Z,3.00
2023-01-28T06:05:16.014Z,5.60
2023-01-28T06:06:15.971Z,4.00
2023-01-28T06:07:15.998Z,3.30
2023-01-28T06:08:15.965Z,3.40
2023-01-28T06:09:15.949Z,2.70
2023-01-28T06:10:16.296Z,4.30
2023-01-28T06:11:15.927Z,2.50
2023-01-28T06:12:15.935Z,2.50
2023-01-28T06:13:15.909Z,3.00
2023-01-28T06:14:15.886Z,3.20
2023-01-28T06:15:15.879Z,3.20
2023-01-28T06:16:15.890Z,3.50
2023-01-28T06:17:15.873Z,2.70
2023-01-28T06:18:15.857Z,2.40
2023-01-28T06:19:15.838Z,3.20
2023-01-28T06:20:16.172Z,3.70
2023-01-28T06:21:15.814Z,2.50
2023-01-28T06:22:15.836Z,2.50
2023-01-28T06:23:15.823Z,2.50
2023-01-28T06:24:15.822Z,3.70
2023-01-28T06:25:15.774Z,3.70
2023-01-28T06:26:15.754Z,2.90
2023-01-28T06:27:15.774Z,3.10
2023-01-28T06:28:15.731Z,3.70
2023-01-28T06:29:15.728Z,2.40
2023-01-28T06:30:16.055Z,3.10
2023-01-28T06:31:15.717Z,3.00
2023-01-28T06:32:15.896Z,3.10
2023-01-28T06:33:15.686Z,5.10
2023-01-28T06:34:15.675Z,2.50
2023-01-28T06:35:15.669Z,3.90
2023-01-28T06:36:15.647Z,2.40
2023-01-28T06:37:15.650Z,4.20
2023-01-28T06:38:15.631Z,2.60
2023-01-28T06:39:15.617Z,2.30
2023-01-28T06:40:15.961Z,2.50
2023-01-28T06:41:15.606Z,4.10
2023-01-28T06:42:15.598Z,3.20
2023-01-28T06:43:15.574Z,3.80
2023-01-28T06:44:15.572Z,4.00
2023-01-28T06:45:15.548Z,3.20
2023-01-28T06:46:15.557Z,3.50
2023-01-28T06:47:15.574Z,4.00
2023-01-28T06:48:15.512Z,3.10
2023-01-28T06:49:15.507Z,3.60
2023-01-28T06:50:15.845Z,2.70
2023-01-28T06:51:15.502Z,3.00
2023-01-28T06:52:15.488Z,2.50
2023-01-28T06:53:15.498Z,4.30
2023-01-28T06:54:15.460Z,4.90
2023-01-28T06:55:15.465Z,3.90
2023-01-28T06:56:15.451Z,3.60
2023-01-28T06:57:15.435Z,3.00
2023-01-28T06:58:15.424Z,3.80
2023-01-28T06:59:15.401Z,3.00
2023-01-28T07:00:15.634Z,4.20
2023-01-28T07:01:15.391Z,3.10
2023-01-28T07:02:15.381Z,6.00
2023-01-28T07:03:15.405Z,3.10
2023-01-28T07:04:15.348Z,2.80
2023-01-28T07:05:15.332Z,3.70
2023-01-28T07:06:15.330Z,4.00
2023-01-28T07:07:15.328Z,5.60
2023-01-28T07:08:15.301Z,4.30
2023-01-28T07:09:15.285Z,3.70
2023-01-28T07:10:15.569Z,3.70
2023-01-28T07:11:15.275Z,3.70
2023-01-28T07:12:15.265Z,4.20
2023-01-28T07:13:15.252Z,4.90
2023-01-28T07:14:15.247Z,3.50
2023-01-28T07:15:15.363Z,3.80
2023-01-28T07:16:15.243Z,4.90
2023-01-28T07:17:15.336Z,3.00
2023-01-28T07:18:15.192Z,3.00
2023-01-28T07:19:15.180Z,4.00
2023-01-28T07:20:15.726Z,5.10
2023-01-28T07:21:15.160Z,3.60
2023-01-28T07:22:15.189Z,4.10
2023-01-28T07:23:15.173Z,4.90
2023-01-28T07:24:15.147Z,3.90
2023-01-28T07:25:15.199Z,3.20
2023-01-28T07:26:15.121Z,6.70
2023-01-28T07:27:15.139Z,4.00
2023-01-28T07:28:15.131Z,3.50
2023-01-28T07:29:15.066Z,3.70
2023-01-28T07:30:15.440Z,3.80
2023-01-28T07:31:15.143Z,3.30
2023-01-28T07:32:15.088Z,3.70
2023-01-28T07:33:15.023Z,4.00
2023-01-28T07:34:15.012Z,4.90
2023-01-28T07:35:15.019Z,3.50
2023-01-28T07:36:14.995Z,3.50
2023-01-28T07:37:14.996Z,4.20
2023-01-28T07:38:14.978Z,3.30
2023-01-28T07:39:14.961Z,5.70
2023-01-28T07:40:15.341Z,4.30
2023-01-28T07:41:14.958Z,3.30
2023-01-28T07:42:14.936Z,4.40
2023-01-28T07:43:14.930Z,4.50
2023-01-28T07:44:14.917Z,3.30
2023-01-28T07:45:14.897Z,5.50
2023-01-28T07:46:14.886Z,4.60
2023-01-28T07:47:14.939Z,5.60
2023-01-28T07:48:14.898Z,5.40
2023-01-28T07:49:14.871Z,3.60
2023-01-28T07:50:15.091Z,4.10
2023-01-28T07:51:14.841Z,3.00
2023-01-28T07:52:14.842Z,3.40
2023-01-28T07:53:14.817Z,3.40
2023-01-28T07:54:14.819Z,3.40
2023-01-28T07:55:14.793Z,3.60
2023-01-28T07:56:14.795Z,4.00
2023-01-28T07:57:14.791Z,4.40
2023-01-28T07:58:14.750Z,4.40
2023-01-28T07:59:14.749Z,3.30
2023-01-28T08:00:15.070Z,4.60
2023-01-28T08:01:14.787Z,3.20
2023-01-28T08:02:14.731Z,5.50
2023-01-28T08:03:14.705Z,3.30
2023-01-28T08:04:14.912Z,5.60
2023-01-28T08:05:14.783Z,4.30
2023-01-28T08:06:14.679Z,4.00
2023-01-28T08:07:14.722Z,3.00
2023-01-28T08:08:14.648Z,4.50
2023-01-28T08:09:14.693Z,4.40
2023-01-28T08:10:15.030Z,3.90
2023-01-28T08:11:14.611Z,3.40
2023-01-28T08:12:14.618Z,3.50
2023-01-28T08:13:14.585Z,4.20
2023-01-28T08:14:14.594Z,3.20
2023-01-28T08:15:14.577Z,3.60
2023-01-28T08:16:14.620Z,3.90
2023-01-28T08:17:14.570Z,2.70
2023-01-28T08:18:14.533Z,4.80
2023-01-28T08:19:14.524Z,4.80
2023-01-28T08:20:14.911Z,5.90
2023-01-28T08:21:14.550Z,3.10
2023-01-28T08:22:14.508Z,3.10
2023-01-28T08:23:14.487Z,3.90
2023-01-28T08:24:14.505Z,4.50
2023-01-28T08:25:14.466Z,4.20
2023-01-28T08:26:14.453Z,4.20
2023-01-28T08:27:14.433Z,3.70
2023-01-28T08:28:14.455Z,3.80
2023-01-28T08:29:14.421Z,4.00
2023-01-28T08:30:14.871Z,3.90
2023-01-28T08:31:14.444Z,3.40
2023-01-28T08:32:14.387Z,4.30
2023-01-28T08:33:14.393Z,5.00
2023-01-28T08:34:14.389Z,4.50
2023-01-28T08:35:14.362Z,3.80
2023-01-28T08:36:14.356Z,3.90
2023-01-28T08:37:14.325Z,6.10
2023-01-28T08:38:14.345Z,3.90
2023-01-28T08:39:14.299Z,5.60
2023-01-28T08:40:14.590Z,4.30
2023-01-28T08:41:14.290Z,5.20
2023-01-28T08:42:14.281Z,4.70
2023-01-28T08:43:14.288Z,6.00
2023-01-28T08:44:14.258Z,4.90
2023-01-28T08:45:14.251Z,3.70
2023-01-28T08:46:14.253Z,4.30
2023-01-28T08:47:14.215Z,6.10
2023-01-28T08:48:14.229Z,5.50
2023-01-28T08:49:14.207Z,7.20
2023-01-28T08:50:14.420Z,4.30
2023-01-28T08:51:14.180Z,6.30
2023-01-28T08:52:14.199Z,5.00
2023-01-28T08:53:14.172Z,5.80
2023-01-28T08:54:14.137Z,4.80
2023-01-28T08:55:14.162Z,6.10
2023-01-28T08:56:14.119Z,6.00
2023-01-28T08:57:14.117Z,7.00
2023-01-28T08:58:14.124Z,6.00
2023-01-28T08:59:14.082Z,6.00
2023-01-28T09:00:14.443Z,5.00
2023-01-28T09:01:14.102Z,6.90
2023-01-28T09:02:29.205Z,6.70
2023-01-28T09:03:14.060Z,7.50
2023-01-28T09:04:14.036Z,6.80
2023-01-28T09:05:14.018Z,6.30
2023-01-28T09:06:14.018Z,8.20
2023-01-28T09:07:14.006Z,6.90
2023-01-28T09:08:14.007Z,6.70
2023-01-28T09:09:13.977Z,8.20
2023-01-28T09:10:14.305Z,7.20
2023-01-28T09:11:13.949Z,8.00
2023-01-28T09:12:13.944Z,9.00
2023-01-28T09:13:13.971Z,8.80
2023-01-28T09:14:13.930Z,9.60
2023-01-28T09:15:13.908Z,9.80
2023-01-28T09:16:13.971Z,10.10
2023-01-28T09:17:13.913Z,10.70
2023-01-28T09:18:13.893Z,8.30
2023-01-28T09:19:15.001Z,9.50
2023-01-28T09:20:14.323Z,9.60
2023-01-28T09:21:13.856Z,10.00
2023-01-28T09:22:13.839Z,12.10
2023-01-28T09:23:13.867Z,9.80
2023-01-28T09:24:13.842Z,12.70
2023-01-28T09:25:13.813Z,11.80
2023-01-28T09:26:13.796Z,12.30
2023-01-28T09:27:13.781Z,11.00
2023-01-28T09:28:13.787Z,11.50
2023-01-28T09:29:13.758Z,12.20
2023-01-28T09:30:14.415Z,11.00
2023-01-28T09:31:13.858Z,10.90
2023-01-28T09:32:13.742Z,12.10
2023-01-28T09:33:13.736Z,11.10
2023-01-28T09:34:13.702Z,11.70
2023-01-28T09:35:13.700Z,13.10
2023-01-28T09:36:13.687Z,12.00
2023-01-28T09:37:13.677Z,11.50
2023-01-28T09:38:13.681Z,14.50
2023-01-28T09:39:13.643Z,14.50
2023-01-28T09:40:13.851Z,13.10
2023-01-28T09:41:13.623Z,12.40
2023-01-28T09:42:13.624Z,13.20
2023-01-28T09:43:13.625Z,14.00
2023-01-28T09:44:13.600Z,13.90
2023-01-28T09:45:13.594Z,13.30
2023-01-28T09:46:13.579Z,14.40
2023-01-28T09:47:13.562Z,14.30
2023-01-28T09:48:13.563Z,13.30
2023-01-28T09:49:13.534Z,12.40
2023-01-28T09:50:14.037Z,12.50
2023-01-28T09:51:13.518Z,13.50
2023-01-28T09:52:13.523Z,13.40
2023-01-28T09:53:13.512Z,12.30
2023-01-28T09:54:13.495Z,12.00
2023-01-28T09:55:13.481Z,11.10
2023-01-28T09:56:13.482Z,11.50
2023-01-28T09:57:13.461Z,11.30
2023-01-28T09:58:13.474Z,10.90
2023-01-28T09:59:13.426Z,11.60
2023-01-28T10:00:15.456Z,10.70
2023-01-28T10:01:13.486Z,11.90
2023-01-28T10:02:13.396Z,10.70
2023-01-28T10:03:13.405Z,10.70
2023-01-28T10:04:13.382Z,10.00
2023-01-28T10:05:13.366Z,10.70
2023-01-28T10:06:13.367Z,11.30
2023-01-28T10:07:13.338Z,11.50
2023-01-28T10:08:13.350Z,9.80
2023-01-28T10:09:13.317Z,11.10
2023-01-28T10:10:13.816Z,11.40
2023-01-28T10:11:13.309Z,15.20
2023-01-28T10:12:13.401Z,11.10
2023-01-28T10:13:13.310Z,10.40
2023-01-28T10:14:13.278Z,10.00
2023-01-28T10:15:13.291Z,10.90
2023-01-28T10:16:13.304Z,11.20
2023-01-28T10:17:13.295Z,11.60
2023-01-28T10:18:17.676Z,10.70
2023-01-28T10:19:15.319Z,10.20
2023-01-28T10:20:13.729Z,9.90
2023-01-28T10:21:13.230Z,10.80
2023-01-28T10:22:13.181Z,10.50
2023-01-28T10:23:13.263Z,9.90
2023-01-28T10:24:13.238Z,11.10
2023-01-28T10:25:13.198Z,10.80
2023-01-28T10:26:13.144Z,10.90
2023-01-28T10:27:13.170Z,9.30
2023-01-28T10:28:13.180Z,10.30
2023-01-28T10:29:13.129Z,9.80
2023-01-28T10:30:13.619Z,9.70
2023-01-28T10:31:13.188Z,9.40
2023-01-28T10:32:13.088Z,10.80
2023-01-28T10:33:13.132Z,9.90
2023-01-28T10:34:13.057Z,10.70
2023-01-28T10:35:13.058Z,12.30
2023-01-28T10:36:13.065Z,10.50
2023-01-28T10:37:13.046Z,10.30
2023-01-28T10:38:13.030Z,9.80
2023-01-28T10:39:13.012Z,10.90
2023-01-28T10:40:13.494Z,10.40
2023-01-28T10:41:12.981Z,10.70
2023-01-28T10:42:12.964Z,10.40
2023-01-28T10:43:12.962Z,12.50
2023-01-28T10:44:12.946Z,10.10
2023-01-28T10:45:12.936Z,11.00
2023-01-28T10:46:12.960Z,11.00
2023-01-28T10:47:12.914Z,10.60
2023-01-28T10:48:12.916Z,10.80
2023-01-28T10:49:12.922Z,11.20
2023-01-28T10:50:13.373Z,10.20
2023-01-28T10:51:12.868Z,10.80
2023-01-28T10:52:12.857Z,10.50
2023-01-28T10:53:12.859Z,11.00
2023-01-28T10:54:12.840Z,10.60
2023-01-28T10:55:12.819Z,9.90
2023-01-28T10:56:12.809Z,11.80
2023-01-28T10:57:12.798Z,11.00
2023-01-28T10:58:12.819Z,10.30
2023-01-28T10:59:12.782Z,10.20
2023-01-28T11:00:13.004Z,10.80
2023-01-28T11:01:12.815Z,10.00
2023-01-28T11:02:12.767Z,10.00
2023-01-28T11:03:12.765Z,10.20
2023-01-28T11:04:12.736Z,9.30
2023-01-28T11:05:12.712Z,10.60
2023-01-28T11:06:12.715Z,11.10
2023-01-28T11:07:12.691Z,10.50
2023-01-28T11:08:12.706Z,11.70
2023-01-28T11:09:12.663Z,10.10
2023-01-28T11:10:13.201Z,12.00
2023-01-28T11:11:12.648Z,11.80
2023-01-28T11:12:12.643Z,11.40
2023-01-28T11:13:12.646Z,12.40
2023-01-28T11:14:12.634Z,11.10
2023-01-28T11:15:12.658Z,12.90
2023-01-28T11:16:12.605Z,11.30
2023-01-28T11:17:12.606Z,11.10
2023-01-28T11:18:12.598Z,12.50
2023-01-28T11:19:12.560Z,11.60
2023-01-28T11:20:12.881Z,9.30
2023-01-28T11:21:12.541Z,11.70
2023-01-28T11:22:12.526Z,10.30
2023-01-28T11:23:12.542Z,11.40
2023-01-28T11:24:12.524Z,11.50
2023-01-28T11:25:12.484Z,10.70
2023-01-28T11:26:12.491Z,13.00
2023-01-28T11:27:12.477Z,11.90
2023-01-28T11:28:12.492Z,11.00
2023-01-28T11:29:12.449Z,10.40
2023-01-28T11:30:12.442Z,11.40
2023-01-28T11:31:12.466Z,11.00
2023-01-28T11:32:12.408Z,10.50
2023-01-28T11:33:12.444Z,9.40
2023-01-28T11:34:12.397Z,13.70
2023-01-28T11:35:13.727Z,11.20
2023-01-28T11:36:12.388Z,10.20
2023-01-28T11:37:12.354Z,10.80
2023-01-28T11:38:12.358Z,10.70
2023-01-28T11:39:12.340Z,10.30
2023-01-28T11:40:12.336Z,10.90
2023-01-28T11:41:12.310Z,8.90
2023-01-28T11:42:12.302Z,11.20
2023-01-28T11:43:12.322Z,12.50
2023-01-28T11:44:12.281Z,14.80
2023-01-28T11:45:12.280Z,12.00
2023-01-28T11:46:12.312Z,13.60
2023-01-28T11:47:12.278Z,11.60
2023-01-28T11:48:12.281Z,15.70
2023-01-28T11:49:12.225Z,13.40
2023-01-28T11:50:12.223Z,12.70
2023-01-28T11:51:12.218Z,11.60
2023-01-28T11:52:12.190Z,9.10
2023-01-28T11:53:12.195Z,11.40
2023-01-28T11:54:12.178Z,10.10
2023-01-28T11:55:12.157Z,12.50
2023-01-28T11:56:12.153Z,10.10
2023-01-28T11:57:12.154Z,8.90
2023-01-28T11:58:12.154Z,10.90
2023-01-28T11:59:12.116Z,10.30
2023-01-28T12:00:12.511Z,10.00
2023-01-28T12:01:12.133Z,9.80
2023-01-28T12:02:12.088Z,12.30
2023-01-28T12:03:12.108Z,10.60
2023-01-28T12:04:12.080Z,12.10
2023-01-28T12:05:12.076Z,10.40
2023-01-28T12:06:12.044Z,11.20
2023-01-28T12:07:12.040Z,11.40
2023-01-28T12:08:12.028Z,10.40
2023-01-28T12:09:12.005Z,13.40
2023-01-28T12:10:12.008Z,12.90
2023-01-28T12:11:11.979Z,11.00
2023-01-28T12:12:11.991Z,12.80
2023-01-28T12:13:12.019Z,11.80
2023-01-28T12:14:11.957Z,12.40
2023-01-28T12:15:11.950Z,13.00
2023-01-28T12:16:11.998Z,16.10
2023-01-28T12:17:11.923Z,10.80
2023-01-28T12:18:11.930Z,12.70
2023-01-28T12:19:11.907Z,12.70
2023-01-28T12:20:11.994Z,14.90
2023-01-28T12:21:11.875Z,12.90
2023-01-28T12:22:11.866Z,14.50
2023-01-28T12:23:11.846Z,12.10
2023-01-28T12:24:11.904Z,15.60
2023-01-28T12:25:11.826Z,15.80
2023-01-28T12:26:11.826Z,15.50
2023-01-28T12:27:11.806Z,15.00
2023-01-28T12:28:11.804Z,15.00
2023-01-28T12:29:11.804Z,13.70
2023-01-28T12:30:11.774Z,16.50
2023-01-28T12:31:11.880Z,13.90
2023-01-28T12:32:11.763Z,13.80
2023-01-28T12:33:11.747Z,14.60
2023-01-28T12:34:11.762Z,15.50
2023-01-28T12:35:11.717Z,13.60
2023-01-28T12:36:11.701Z,14.80
2023-01-28T12:37:11.700Z,11.40
2023-01-28T12:38:11.688Z,13.90
2023-01-28T12:39:11.694Z,15.40
2023-01-28T12:40:11.684Z,12.80
2023-01-28T12:41:11.650Z,16.40
2023-01-28T12:42:11.649Z,13.40
2023-01-28T12:43:11.632Z,14.80
2023-01-28T12:44:11.644Z,15.50
2023-01-28T12:45:11.621Z,16.50
2023-01-28T12:46:11.597Z,16.30
2023-01-28T12:47:11.588Z,15.90
2023-01-28T12:48:11.581Z,17.00
2023-01-28T12:49:11.592Z,16.90
2023-01-28T12:50:11.710Z,17.30
2023-01-28T12:51:11.543Z,15.20
2023-01-28T12:52:11.530Z,15.20
2023-01-28T12:53:11.521Z,17.00
2023-01-28T12:54:11.535Z,15.80
2023-01-28T12:55:11.514Z,14.00
2023-01-28T12:56:11.495Z,16.90
2023-01-28T12:57:11.485Z,15.60
2023-01-28T12:58:11.461Z,15.20
2023-01-28T12:59:11.479Z,18.20
2023-01-28T13:00:11.471Z,19.00
2023-01-28T13:01:11.428Z,15.40
2023-01-28T13:02:11.474Z,16.50
2023-01-28T13:03:11.462Z,17.30
2023-01-28T13:04:11.414Z,16.30
2023-01-28T13:05:11.408Z,17.40
2023-01-28T13:06:11.385Z,16.80
2023-01-28T13:07:11.376Z,16.80
2023-01-28T13:08:11.357Z,19.80
2023-01-28T13:09:11.364Z,15.20
2023-01-28T13:10:11.334Z,16.50
2023-01-28T13:11:11.322Z,19.10